createdAt,value
2019-05-19T00:00:02.709Z,9.58
2019-05-19T00:10:02.772Z,9.43
2019-05-19T00:20:02.712Z,9.15
2019-05-19T00:30:02.810Z,9.66
2019-05-19T00:40:02.924Z,9.48
2019-05-19T00:50:02.582Z,9.18
2019-05-19T01:00:03.178Z,9.26
2019-05-19T01:10:02.175Z,9.17
2019-05-19T01:20:02.765Z,9.14
2019-05-19T01:30:08.110Z,8.84
2019-05-19T01:40:02.833Z,9.01
2019-05-19T01:50:16.795Z,9.26
2019-05-19T02:00:03.041Z,9.52
2019-05-19T02:10:02.957Z,9.59
2019-05-19T02:20:02.867Z,9.27
2019-05-19T02:30:03.444Z,9.14
2019-05-19T02:40:02.383Z,9.11
2019-05-19T02:50:02.121Z,9.41
2019-05-19T03:00:03.215Z,9.62
2019-05-19T03:10:02.221Z,9.64
2019-05-19T03:20:02.788Z,9.58
2019-05-19T03:30:02.688Z,9.50
2019-05-19T03:40:02.595Z,9.51
2019-05-19T03:50:02.065Z,9.79
2019-05-19T04:00:03.201Z,10.22
2019-05-19T04:10:02.175Z,10.37
2019-05-19T04:20:02.857Z,10.79
2019-05-19T04:30:03.440Z,11.12
2019-05-19T04:40:02.663Z,11.77
2019-05-19T04:50:02.898Z,12.38
2019-05-19T05:00:08.547Z,12.44
2019-05-19T05:10:02.855Z,12.72
2019-05-19T05:20:07.967Z,13.29
2019-05-19T05:30:02.977Z,13.30
2019-05-19T05:40:02.123Z,14.18
2019-05-19T05:50:02.749Z,13.93
2019-05-19T06:00:02.910Z,14.19
2019-05-19T06:10:02.914Z,14.10
2019-05-19T06:20:03.656Z,14.77
2019-05-19T06:30:03.055Z,15.44
2019-05-19T06:40:02.054Z,15.49
2019-05-19T06:50:02.589Z,16.27
2019-05-19T07:00:03.276Z,16.05
2019-05-19T07:10:02.176Z,17.15
2019-05-19T07:20:02.767Z,17.08
2019-05-19T07:30:02.730Z,17.24
2019-05-19T07:40:03.022Z,18.06
2019-05-19T07:50:02.809Z,17.46
2019-05-19T08:00:02.620Z,17.91
2019-05-19T08:10:02.173Z,18.35
2019-05-19T08:20:02.328Z,19.89
2019-05-19T08:30:02.642Z,19.20
2019-05-19T08:40:02.227Z,19.36
2019-05-19T08:50:02.777Z,20.50
2019-05-19T09:00:03.200Z,19.93
2019-05-19T09:10:02.056Z,21.47
2019-05-19T09:20:02.876Z,20.58
2019-05-19T09:30:03.036Z,22.34
2019-05-19T09:40:02.335Z,21.61
2019-05-19T09:50:02.954Z,21.98
2019-05-19T10:00:02.994Z,21.43
2019-05-19T10:10:02.090Z,21.75
2019-05-19T10:20:02.665Z,22.60
2019-05-19T10:30:02.722Z,22.27
2019-05-19T10:40:02.245Z,23.56
2019-05-19T10:50:02.829Z,23.49
2019-05-19T11:00:03.151Z,22.34
2019-05-19T11:10:02.145Z,24.03
2019-05-19T11:20:02.669Z,22.39
2019-05-19T11:30:03.658Z,24.16
2019-05-19T11:40:02.690Z,25.16
2019-05-19T11:50:02.968Z,24.11
2019-05-19T12:00:02.777Z,25.00
2019-05-19T12:10:03.024Z,25.46
2019-05-19T12:20:02.722Z,23.90
2019-05-19T12:30:02.658Z,24.73
2019-05-19T12:40:02.695Z,24.14
2019-05-19T12:50:02.606Z,23.23
2019-05-19T13:00:02.753Z,23.98
2019-05-19T13:10:02.752Z,24.36
2019-05-19T13:20:02.544Z,25.13
2019-05-19T13:30:02.996Z,25.22
2019-05-19T13:40:02.451Z,24.82
2019-05-19T13:50:02.308Z,24.71
2019-05-19T14:00:03.394Z,24.33
2019-05-19T14:10:02.330Z,24.05
2019-05-19T14:20:02.830Z,24.82
2019-05-19T14:30:02.707Z,24.30
2019-05-19T14:40:02.814Z,24.83
2019-05-19T14:50:02.143Z,24.28
2019-05-19T15:00:03.182Z,24.73
2019-05-19T15:10:02.048Z,24.59
2019-05-19T15:20:02.573Z,23.58
2019-05-19T15:30:12.164Z,23.08
2019-05-19T15:40:02.092Z,23.40
2019-05-19T15:50:02.489Z,23.11
2019-05-19T16:00:04.309Z,23.50
2019-05-19T16:10:02.723Z,23.53
2019-05-19T16:20:02.278Z,22.64
2019-05-19T16:30:03.283Z,22.75
2019-05-19T16:40:02.358Z,22.74
2019-05-19T16:50:02.658Z,22.71
2019-05-19T17:00:03.465Z,22.23
2019-05-19T17:10:02.348Z,22.01
2019-05-19T17:20:02.032Z,21.91
2019-05-19T17:30:03.221Z,21.80
2019-05-19T17:40:02.252Z,21.86
2019-05-19T17:50:02.797Z,22.03
2019-05-19T18:00:03.453Z,19.72
2019-05-19T18:10:02.488Z,17.67
2019-05-19T18:20:02.254Z,16.40
2019-05-19T18:30:03.127Z,15.96
2019-05-19T18:40:02.239Z,15.71
2019-05-19T18:50:02.445Z,15.51
2019-05-19T19:00:02.600Z,15.32
2019-05-19T19:10:02.708Z,14.98
2019-05-19T19:20:02.257Z,14.82
2019-05-19T19:30:04.160Z,14.51
2019-05-19T19:40:02.824Z,14.40
2019-05-19T19:50:02.297Z,14.27
2019-05-19T20:00:15.766Z,14.11
2019-05-19T20:10:02.723Z,14.10
2019-05-19T20:20:02.415Z,13.73
2019-05-19T20:30:03.065Z,13.79
2019-05-19T20:40:02.216Z,13.80
2019-05-19T20:50:02.776Z,13.68
2019-05-19T21:00:03.277Z,13.60
2019-05-19T21:10:02.349Z,13.61
2019-05-19T21:20:03.276Z,13.56
2019-05-19T21:30:02.851Z,13.52
2019-05-19T21:40:02.852Z,13.43
2019-05-19T21:50:02.464Z,13.32
2019-05-19T22:00:02.757Z,13.28
2019-05-19T22:10:02.756Z,13.29
2019-05-19T22:20:02.368Z,13.14
2019-05-19T22:30:03.252Z,13.06
2019-05-19T22:40:02.271Z,12.97
2019-05-19T22:50:02.812Z,12.92
2019-05-19T23:00:03.111Z,12.85
2019-05-19T23:10:03.063Z,12.80
2019-05-19T23:20:02.785Z,12.64
2019-05-19T23:30:02.641Z,12.59
2019-05-19T23:40:02.608Z,12.53
2019-05-19T23:50:02.973Z,12.47
